Time;durP1;ratioP1;P1;durP2;ratioP2;P2;SDS_P1;SDS_P2;PMS_P1;PMS_P2;Temp;Humidity;BMP_temperature;BMP_pressure;BME280_temperature;BME280_humidity;BME280_pressure;Samples;Min_cycle;Max_cycle;Signal;HPM_P1;HPM_P2
2023/01/13 00:00:47;;;;;;;1.60;1.50;;;;;;;1.32;91.95;93629.78;5009213;28;20056;-40
2023/01/13 00:03:13;;;;;;;1.65;1.30;;;;;;;1.40;92.03;93628.88;5008149;28;20034;-40
2023/01/13 00:05:38;;;;;;;1.40;1.23;;;;;;;1.42;91.98;93631.84;5008363;28;20033;-40
2023/01/13 00:08:05;;;;;;;2.17;1.50;;;;;;;1.35;92.31;93637.72;5008995;28;20033;-40
2023/01/13 00:10:34;;;;;;;3.47;2.05;;;;;;;1.28;92.17;93634.69;5009006;28;20034;-40
2023/01/13 00:12:59;;;;;;;;;;;;;;;1.40;92.09;93642.47;5009643;28;20060;-40
2023/01/13 00:15:25;;;;;;;2.38;1.67;;;;;;;1.31;92.08;93647.34;5008686;28;20504;-40
2023/01/13 00:17:50;;;;;;;2.03;1.50;;;;;;;1.30;92.89;93640.41;5008819;28;20536;-40
2023/01/13 00:20:16;;;;;;;3.65;1.90;;;;;;;1.40;92.75;93645.19;5009008;28;20437;-40
2023/01/13 00:22:42;;;;;;;2.85;2.08;;;;;;;1.35;93.05;93639.69;5009013;28;20053;-40
2023/01/13 00:25:08;;;;;;;2.95;2.20;;;;;;;1.38;92.95;93634.03;5008860;28;20101;-40
2023/01/13 00:27:33;;;;;;;2.70;2.10;;;;;;;1.37;93.16;93639.94;5008306;28;20028;-40
2023/01/13 00:29:59;;;;;;;1.73;1.63;;;;;;;1.28;93.45;93643.59;5018324;28;20044;-40
2023/01/13 00:32:25;;;;;;;1.40;1.30;;;;;;;1.35;93.60;93635.00;5028565;28;20408;-40
2023/01/13 00:34:50;;;;;;;2.50;1.65;;;;;;;1.34;93.67;93646.38;5028224;28;20048;-40
2023/01/13 00:37:16;;;;;;;3.17;1.70;;;;;;;1.36;92.83;93641.19;5027739;28;20032;-40
2023/01/13 00:39:41;;;;;;;1.35;1.20;;;;;;;1.34;92.94;93635.50;5026835;28;20018;-39
2023/01/13 00:44:51;;;;;;;2.40;1.38;;;;;;;1.28;93.50;93638.16;5025306;28;20121;-40
2023/01/13 00:47:17;;;;;;;1.63;1.35;;;;;;;1.30;94.12;93637.69;5008262;28;20049;-39
2023/01/13 00:49:43;;;;;;;1.17;1.08;;;;;;;1.43;92.80;93638.00;5007851;28;20487;-40
2023/01/13 00:52:09;;;;;;;1.05;0.90;;;;;;;1.19;94.06;93635.63;5008154;28;20028;-40
2023/01/13 00:54:35;;;;;;;0.70;0.70;;;;;;;1.34;93.73;93635.50;5008347;28;20417;-40
2023/01/13 00:57:00;;;;;;;0.82;0.82;;;;;;;1.33;93.63;93632.03;5008138;28;20029;-40
2023/01/13 00:59:26;;;;;;;1.23;1.10;;;;;;;1.24;94.28;93629.47;5007921;28;20040;-40
2023/01/13 01:01:51;;;;;;;1.02;0.95;;;;;;;1.26;94.29;93626.28;5007693;28;20034;-40
2023/01/13 01:04:16;;;;;;;0.75;0.75;;;;;;;1.19;95.04;93624.75;5012555;28;20083;-40
2023/01/13 01:06:42;;;;;;;0.88;0.88;;;;;;;1.27;94.90;93619.63;5027884;28;20044;-40
2023/01/13 01:09:12;;;;;;;3.20;1.90;;;;;;;1.23;95.27;93622.56;5027101;28;20083;-40
2023/01/13 01:11:37;;;;;;;1.45;1.13;;;;;;;1.28;94.76;93624.56;5027321;28;20117;-40
2023/01/13 01:14:03;;;;;;;13.95;6.10;;;;;;;1.19;95.20;93618.59;5027300;28;20113;-40
2023/01/13 01:16:30;;;;;;;5.05;3.22;;;;;;;1.29;94.47;93617.91;5026313;28;20110;-40
2023/01/13 01:18:56;;;;;;;3.78;2.65;;;;;;;1.19;95.09;93613.16;5007333;28;20030;-40
2023/01/13 01:21:23;;;;;;;3.03;2.45;;;;;;;1.16;95.34;93614.84;5007224;28;20129;-40
2023/01/13 01:23:48;;;;;;;2.90;2.20;;;;;;;1.18;95.19;93608.91;5007426;28;20104;-40
2023/01/13 01:26:19;;;;;;;5.85;4.38;;;;;;;1.17;95.19;93612.88;5007649;28;20076;-40
2023/01/13 01:28:45;;;;;;;2.10;1.40;;;;;;;1.12;95.56;93614.34;5007430;28;20599;-39
2023/01/13 01:31:36;;;;;;;2.35;1.73;;;;;;;1.19;95.76;93608.44;5007321;28;20022;-40
2023/01/13 01:34:01;;;;;;;1.23;1.13;;;;;;;1.22;95.43;93604.75;5007406;28;20030;-40
2023/01/13 01:36:28;;;;;;;1.30;1.20;;;;;;;1.25;95.13;93601.06;5007432;28;20434;-40
2023/01/13 01:38:58;;;;;;;4.45;3.28;;;;;;;1.18;95.83;93606.19;5007567;28;20104;-40
2023/01/13 01:41:25;;;;;;;6.20;3.13;;;;;;;1.13;95.75;93609.63;5007121;28;20032;-40
2023/01/13 01:44:02;;;;;;;7.55;4.85;;;;;;;1.18;96.15;93608.91;5007658;28;20458;-40
2023/01/13 01:46:35;;;;;;;2.55;1.60;;;;;;;1.18;95.94;93604.22;5006931;28;20022;-40
2023/01/13 01:49:25;;;;;;;4.18;2.13;;;;;;;1.17;95.90;93608.16;5007386;28;20037;-40
2023/01/13 01:52:00;;;;;;;5.75;3.30;;;;;;;1.28;95.30;93597.38;4996946;28;20048;-40
2023/01/13 01:54:48;;;;;;;2.90;2.08;;;;;;;1.26;95.66;93602.53;5011174;28;20034;-40
2023/01/13 01:57:17;;;;;;;2.08;1.67;;;;;;;1.30;94.73;93602.34;5010812;28;20041;-39
2023/01/13 01:59:43;;;;;;;1.75;1.50;;;;;;;1.19;95.30;93599.53;5011151;28;20036;-40
2023/01/13 02:02:09;;;;;;;1.95;1.77;;;;;;;1.23;95.68;93602.78;5011140;28;20033;-40
2023/01/13 02:04:38;;;;;;;2.15;1.95;;;;;;;1.26;95.36;93599.06;5011239;28;20029;-41
2023/01/13 02:07:04;;;;;;;6.07;3.88;;;;;;;1.13;95.87;93596.78;5009520;28;20022;-40
2023/01/13 02:09:30;;;;;;;3.38;2.00;;;;;;;1.20;95.75;93603.75;5010994;28;20123;-40
2023/01/13 02:14:40;;;;;;;1.50;1.30;;;;;;;1.13;95.57;93599.50;5010625;28;20508;-40
2023/01/13 02:17:21;;;;;;;1.42;1.25;;;;;;;1.15;95.51;93599.75;5010721;28;20026;-40
2023/01/13 02:20:15;;;;;;;1.77;1.13;;;;;;;1.12;95.79;93599.97;5010934;28;20091;-40
2023/01/13 02:22:43;;;;;;;2.33;1.77;;;;;;;1.10;95.86;93600.47;5009378;28;20121;-40
2023/01/13 02:25:59;;;;;;;1.30;1.20;;;;;;;1.05;95.62;93603.13;5010680;28;20038;-40
2023/01/13 02:28:30;;;;;;;2.40;1.65;;;;;;;1.07;96.22;93596.00;4949278;29;20098;-40
2023/01/13 02:34:09;;;;;;;1.15;1.10;;;;;;;1.02;96.21;93602.13;5028912;28;20036;-40
2023/01/13 02:36:54;;;;;;;1.67;1.27;;;;;;;0.95;96.83;93602.59;5029219;28;20336;-40
2023/01/13 02:39:24;;;;;;;2.35;1.50;;;;;;;0.93;96.65;93607.78;5028762;28;20108;-40
2023/01/13 02:44:53;;;;;;;2.72;2.28;;;;;;;0.88;96.84;93605.75;5022071;28;20024;-40
2023/01/13 02:47:24;;;;;;;1.88;1.65;;;;;;;0.89;97.56;93609.22;5007842;28;20137;-40
2023/01/13 02:50:18;;;;;;;1.90;1.67;;;;;;;0.86;97.79;93607.44;5007487;28;20030;-40
2023/01/13 02:53:21;;;;;;;2.33;1.75;;;;;;;0.84;97.74;93615.34;5007690;28;20029;-40
2023/01/13 02:55:49;;;;;;;2.40;1.73;;;;;;;0.80;97.46;93604.69;5007352;28;20042;-40
2023/01/13 02:58:18;;;;;;;2.10;1.60;;;;;;;0.84;97.75;93607.94;5007845;28;20021;-40
2023/01/13 03:00:44;;;;;;;3.03;1.88;;;;;;;0.82;98.13;93604.97;5007570;28;20072;-40
2023/01/13 03:03:10;;;;;;;1.98;1.70;;;;;;;0.85;98.07;93598.53;5008302;28;20058;-40
2023/01/13 03:05:35;;;;;;;2.58;1.40;;;;;;;0.88;97.28;93603.03;5008463;28;20022;-40
2023/01/13 03:08:22;;;;;;;2.33;1.52;;;;;;;0.92;96.25;93603.53;5007194;28;20492;-40
2023/01/13 03:10:47;;;;;;;1.55;1.30;;;;;;;0.91;96.85;93604.75;5008866;28;20033;-40
2023/01/13 03:13:38;;;;;;;0.93;0.93;;;;;;;0.96;96.24;93595.16;5008943;28;20441;-40
2023/01/13 03:16:06;;;;;;;1.23;0.88;;;;;;;1.06;96.47;93605.38;5007153;28;20061;-39
2023/01/13 03:19:02;;;;;;;1.30;1.20;;;;;;;1.02;95.56;93604.84;5008572;28;20453;-40
2023/01/13 03:21:39;;;;;;;1.23;1.13;;;;;;;0.92;96.15;93591.94;5008793;28;20104;-40
2023/01/13 03:24:17;;;;;;;0.98;0.98;;;;;;;1.07;95.93;93601.44;5007316;28;20029;-40
2023/01/13 03:27:01;;;;;;;1.20;0.90;;;;;;;1.04;95.54;93601.66;5007024;28;20045;-39
2023/01/13 03:29:37;;;;;;;0.93;0.90;;;;;;;0.94;95.65;93589.47;5012234;28;20037;-40
2023/01/13 03:32:13;;;;;;;0.90;0.90;;;;;;;0.95;96.07;93597.16;5026925;28;20032;-40
2023/01/13 03:34:44;;;;;;;1.60;1.50;;;;;;;1.04;95.82;93607.81;4983797;28;1276793;-40
2023/01/13 03:37:11;;;;;;;1.35;1.25;;;;;;;1.12;95.81;93608.91;5027538;28;20033;-40
2023/01/13 03:39:39;;;;;;;2.58;2.30;;;;;;;1.04;95.72;93604.38;5028936;28;20107;-40
2023/01/13 03:42:12;;;;;;;4.72;1.85;;;;;;;0.94;96.45;93609.25;5027902;28;20025;-40
2023/01/13 03:44:45;;;;;;;11.93;6.57;;;;;;;1.10;95.63;93603.19;5027952;28;20053;-40
2023/01/13 03:47:23;;;;;;;1.73;1.63;;;;;;;0.93;96.63;93605.06;5007429;28;20030;-39
2023/01/13 03:50:01;;;;;;;2.83;1.50;;;;;;;0.94;97.08;93605.78;5009137;28;20025;-40
2023/01/13 03:52:31;;;;;;;1.77;1.10;;;;;;;0.93;97.30;93602.34;5007738;28;20057;-40
2023/01/13 03:55:02;;;;;;;5.22;3.13;;;;;;;0.92;97.14;93616.38;5007917;28;20040;-40
2023/01/13 03:57:30;;;;;;;9.80;5.10;;;;;;;0.95;97.02;93613.47;5007154;28;20532;-40
2023/01/13 03:59:58;;;;;;;3.45;1.75;;;;;;;0.85;96.86;93603.22;5007795;28;20030;-40
2023/01/13 04:02:48;;;;;;;3.53;2.72;;;;;;;0.93;97.01;93615.94;5007633;28;20034;-40
2023/01/13 04:05:14;;;;;;;1.25;1.15;;;;;;;0.98;97.72;93614.44;5008883;28;20112;-40
2023/01/13 04:07:50;;;;;;;1.20;1.10;;;;;;;1.02;96.73;93613.00;5007041;28;20109;-40
2023/01/13 04:10:19;;;;;;;3.92;2.47;;;;;;;0.92;96.87;93616.38;5007661;28;20097;-40
2023/01/13 04:13:02;;;;;;;3.90;2.00;;;;;;;0.98;96.97;93609.75;5007559;28;20425;-40
2023/01/13 04:15:40;;;;;;;1.00;0.90;;;;;;;0.97;97.46;93616.44;5006618;28;20022;-39
2023/01/13 04:18:11;;;;;;;2.47;1.20;;;;;;;0.91;98.14;93615.63;5006925;28;20502;-40
2023/01/13 04:20:38;;;;;;;4.95;3.03;;;;;;;0.88;98.33;93616.63;5008364;28;20026;-40
2023/01/13 04:23:04;;;;;;;10.48;5.50;;;;;;;0.95;98.28;93615.44;5008106;28;20539;-40
2023/01/13 04:25:29;;;;;;;3.25;2.58;;;;;;;0.96;98.17;93619.63;5008262;28;20080;-40
2023/01/13 04:27:54;;;;;;;1.85;1.48;;;;;;;0.97;97.68;93613.72;5007900;28;20117;-40
2023/01/13 04:30:20;;;;;;;1.40;1.30;;;;;;;0.93;97.44;93615.94;5008278;28;20034;-40
2023/01/13 04:32:45;;;;;;;2.20;1.52;;;;;;;0.95;97.17;93616.19;5007967;28;20029;-40
2023/01/13 04:35:11;;;;;;;3.28;1.30;;;;;;;0.96;97.34;93623.09;5008116;28;20050;-40
2023/01/13 04:37:36;;;;;;;1.05;1.05;;;;;;;0.98;97.58;93620.63;5008088;28;20026;-39
2023/01/13 04:40:02;;;;;;;1.90;1.80;;;;;;;0.99;97.75;93619.44;5008300;28;20137;-40
2023/01/13 04:42:27;;;;;;;1.63;1.52;;;;;;;1.04;97.63;93617.97;5008063;28;20017;-40
2023/01/13 04:44:53;;;;;;;0.95;0.95;;;;;;;1.01;97.30;93625.13;5007915;28;20013;-40
2023/01/13 04:47:18;;;;;;;0.80;0.80;;;;;;;1.03;97.26;93638.22;5007837;28;20068;-40
2023/01/13 04:49:44;;;;;;;0.73;0.73;;;;;;;1.07;97.33;93627.88;5007751;28;20026;-40
2023/01/13 04:52:09;;;;;;;1.52;1.10;;;;;;;1.04;97.06;93634.28;5007989;28;20291;-40
2023/01/13 04:54:34;;;;;;;4.22;1.90;;;;;;;1.07;96.51;93628.63;5007963;28;20743;-40
2023/01/13 04:57:00;;;;;;;1.77;1.27;;;;;;;1.00;97.34;93639.19;5008023;28;20038;-40
2023/01/13 04:59:25;;;;;;;2.42;1.20;;;;;;;1.02;98.25;93639.47;5007673;28;20033;-40
2023/01/13 05:01:51;;;;;;;9.95;4.75;;;;;;;0.98;98.09;93642.38;5007980;28;20018;-40
2023/01/13 05:04:16;;;;;;;7.57;5.45;;;;;;;1.02;98.29;93634.75;5007410;28;20026;-40
2023/01/13 05:06:42;;;;;;;4.95;2.75;;;;;;;1.09;97.97;93647.16;5008039;28;20144;-40
2023/01/13 05:09:07;;;;;;;8.02;3.97;;;;;;;1.10;98.16;93637.78;5007380;28;20030;-40
2023/01/13 05:17:01;;;;;;;2.35;2.13;;;;;;;0.98;98.59;93639.66;5007507;28;20176;-40
2023/01/13 05:19:31;;;;;;;1.90;1.80;;;;;;;1.05;98.55;93647.41;5007187;28;20581;-40
2023/01/13 05:27:26;;;;;;;3.22;1.45;;;;;;;0.99;98.66;93651.28;5007519;28;20625;-40
2023/01/13 05:29:52;;;;;;;4.18;3.00;;;;;;;1.02;98.67;93656.50;5007625;28;20114;-40
2023/01/13 05:32:18;;;;;;;5.28;3.17;;;;;;;1.05;97.88;93661.00;5007465;28;20025;-40
2023/01/13 05:34:43;;;;;;;6.30;5.63;;;;;;;0.95;98.83;93654.25;5006823;28;20538;-40
2023/01/13 05:37:10;;;;;;;4.35;2.92;;;;;;;0.93;98.49;93662.13;5007361;28;20030;-40
2023/01/13 05:45:04;;;;;;;6.47;2.85;;;;;;;1.06;98.22;93667.19;5006735;28;20079;-40
2023/01/13 05:47:31;;;;;;;5.18;3.28;;;;;;;1.04;97.45;93659.47;5007005;28;20026;-40
2023/01/13 05:49:56;;;;;;;5.20;3.38;;;;;;;0.95;97.88;93662.41;5007339;28;20030;-40
2023/01/13 05:52:21;;;;;;;4.88;3.00;;;;;;;0.93;98.20;93666.81;5006873;28;20101;-40
2023/01/13 05:54:47;;;;;;;4.63;3.22;;;;;;;0.95;98.63;93667.84;5005840;28;20747;-40
2023/01/13 05:57:12;;;;;;;3.47;2.80;;;;;;;0.93;99.12;93662.13;5006957;28;20100;-40
2023/01/13 05:59:38;;;;;;;3.03;2.70;;;;;;;0.84;98.90;93664.25;5006961;28;20018;-40
2023/01/13 06:02:03;;;;;;;14.80;9.55;;;;;;;0.84;99.41;93659.56;5007275;28;20413;-40
2023/01/13 06:04:29;;;;;;;7.50;5.93;;;;;;;0.97;99.62;93662.66;5013564;28;20533;-40
2023/01/13 06:06:54;;;;;;;4.43;3.17;;;;;;;0.92;98.64;93673.47;5026673;28;20025;-40
2023/01/13 06:09:21;;;;;;;5.45;3.83;;;;;;;0.97;99.33;93668.09;5026521;28;20101;-40
2023/01/13 06:11:47;;;;;;;12.35;4.57;;;;;;;0.98;99.12;93671.53;5026447;28;20464;-40
2023/01/13 06:14:13;;;;;;;12.18;7.78;;;;;;;1.00;99.50;93669.09;5026775;28;20033;-40
2023/01/13 06:16:38;;;;;;;16.25;8.68;;;;;;;1.00;99.58;93675.28;5024396;28;20104;-40
2023/01/13 06:19:07;;;;;;;12.70;6.07;;;;;;;1.02;99.86;93672.09;5007155;28;20521;-40
2023/01/13 06:21:36;;;;;;;5.90;4.03;;;;;;;1.09;99.58;93677.81;5007062;28;20444;-40
2023/01/13 06:24:01;;;;;;;7.43;3.42;;;;;;;1.18;99.10;93687.78;5006818;28;20090;-40
2023/01/13 06:26:29;;;;;;;10.77;5.68;;;;;;;1.26;98.89;93686.09;5006560;28;20026;-40
2023/01/13 06:28:54;;;;;;;18.15;9.32;;;;;;;1.26;99.11;93684.13;5005693;28;20029;-40
2023/01/13 06:31:20;;;;;;;13.68;7.65;;;;;;;1.38;98.05;93679.53;5006817;28;20030;-40
2023/01/13 06:33:52;;;;;;;7.65;5.18;;;;;;;1.34;98.48;93682.47;5005327;28;20675;-40
2023/01/13 06:36:23;;;;;;;5.47;3.55;;;;;;;1.32;98.40;93686.91;5005130;28;20041;-40
2023/01/13 06:38:52;;;;;;;9.23;6.05;;;;;;;1.41;98.65;93682.03;5006474;28;20034;-40
2023/01/13 06:43:13;;;;;;;10.25;4.22;;;;;;;1.42;98.53;93678.09;5010384;28;20029;-40
2023/01/13 06:44:04;;;;;;;6.20;3.13;;;;;;;1.52;97.73;93687.53;5010326;28;20038;-40
2023/01/13 06:46:29;;;;;;;5.68;4.18;;;;;;;1.50;97.54;93679.13;5009574;28;20026;-40
2023/01/13 06:48:54;;;;;;;2.45;2.15;;;;;;;1.64;97.81;93685.66;5010243;28;20057;-40
2023/01/13 06:51:20;;;;;;;3.55;2.92;;;;;;;1.68;97.16;93688.88;5009940;28;20049;-40
2023/01/13 06:53:45;;;;;;;3.72;2.35;;;;;;;1.63;97.05;93691.56;5009833;28;20026;-40
2023/01/13 06:56:11;;;;;;;8.43;4.40;;;;;;;1.72;97.13;93694.09;5009903;28;20045;-40
2023/01/13 06:58:36;;;;;;;4.40;2.97;;;;;;;1.76;96.78;93698.09;5009941;28;20034;-40
2023/01/13 07:01:05;;;;;;;2.00;1.67;;;;;;;1.87;95.96;93700.13;5009815;28;20025;-40
2023/01/13 07:03:30;;;;;;;4.32;3.72;;;;;;;1.81;95.86;93691.19;5010063;28;20026;-40
2023/01/13 07:05:56;;;;;;;7.93;4.72;;;;;;;1.88;96.62;93693.47;5009770;28;20033;-40
2023/01/13 07:08:22;;;;;;;4.20;3.85;;;;;;;1.88;96.66;93690.75;5009689;28;20036;-40
2023/01/13 07:10:48;;;;;;;3.55;3.17;;;;;;;1.85;95.96;93688.97;5008863;28;20048;-40
2023/01/13 07:16:02;;;;;;;6.97;2.58;;;;;;;1.96;94.94;93694.50;5009753;28;20033;-40
2023/01/13 07:18:30;;;;;;;3.35;2.42;;;;;;;2.08;94.54;93701.50;5008220;28;20057;-40
2023/01/13 07:21:04;;;;;;;4.43;3.03;;;;;;;2.12;94.54;93702.00;5008327;28;20026;-40
2023/01/13 07:23:32;;;;;;;5.10;3.70;;;;;;;2.28;94.37;93707.53;5009402;28;20121;-40
2023/01/13 07:25:58;;;;;;;7.65;3.33;;;;;;;2.40;93.39;93710.28;5009801;28;20026;-40
2023/01/13 07:28:25;;;;;;;7.22;4.53;;;;;;;2.48;93.49;93705.84;5009624;28;20033;-40
2023/01/13 07:30:50;;;;;;;5.55;3.72;;;;;;;2.50;93.15;93708.84;5024396;28;20132;-40
2023/01/13 07:33:17;;;;;;;2.20;2.00;;;;;;;2.59;92.28;93703.94;5028869;28;20048;-40
2023/01/13 07:35:43;;;;;;;5.32;3.63;;;;;;;2.65;91.90;93704.69;5011102;28;20580;-40
2023/01/13 07:38:09;;;;;;;5.32;3.85;;;;;;;2.76;91.14;93698.50;5009309;28;20026;-40
2023/01/13 07:40:35;;;;;;;4.25;2.28;;;;;;;2.81;90.66;93706.72;5009002;28;20032;-40
2023/01/13 07:45:44;;;;;;;1.60;1.50;;;;;;;2.90;90.03;93716.66;5009084;28;20117;-40
2023/01/13 07:48:09;;;;;;;4.50;2.30;;;;;;;3.00;90.46;93710.47;5009114;28;20468;-40
2023/01/13 07:50:35;;;;;;;1.70;1.17;;;;;;;3.15;89.19;93710.25;5008027;28;20028;-40
2023/01/13 07:53:00;;;;;;;1.05;1.00;;;;;;;3.20;88.18;93708.75;5008872;28;20026;-40
2023/01/13 07:55:26;;;;;;;1.90;1.63;;;;;;;3.27;89.15;93700.81;5009077;28;20045;-40
2023/01/13 07:57:51;;;;;;;4.10;2.70;;;;;;;3.49;88.56;93702.78;5008758;28;20026;-40
2023/01/13 08:00:17;;;;;;;1.50;1.35;;;;;;;3.57;87.06;93703.81;5008717;28;20034;-40
2023/01/13 08:02:43;;;;;;;3.95;2.17;;;;;;;3.62;86.22;93701.06;5008871;28;20026;-40
2023/01/13 08:05:08;;;;;;;1.33;1.23;;;;;;;3.53;87.09;93693.13;5020803;28;20025;-40
2023/01/13 08:07:34;;;;;;;1.83;1.70;;;;;;;3.65;86.73;93705.53;5028156;28;20125;-40
2023/01/13 08:10:00;;;;;;;3.78;3.28;;;;;;;3.74;86.77;93704.53;5028501;28;20022;-40
2023/01/13 08:15:10;;;;;;;1.75;1.48;;;;;;;4.00;84.92;93701.50;5027412;28;20043;-40
2023/01/13 08:17:35;;;;;;;2.13;1.75;;;;;;;4.26;83.89;93707.41;5017840;28;20021;-40
2023/01/13 08:20:02;;;;;;;1.73;1.48;;;;;;;4.45;83.41;93714.56;5008337;28;20032;-40
2023/01/13 08:22:29;;;;;;;1.50;1.40;;;;;;;4.33;83.00;93715.81;5008297;28;20029;-40
2023/01/13 08:24:55;;;;;;;2.30;1.40;;;;;;;4.19;83.28;93724.31;5008308;28;20029;-40
2023/01/13 08:27:21;;;;;;;7.60;3.78;;;;;;;4.22;83.51;93724.03;5008353;28;20014;-40
2023/01/13 08:29:47;;;;;;;2.47;2.28;;;;;;;4.26;84.04;93726.53;5008143;28;20026;-40
2023/01/13 08:32:12;;;;;;;5.78;3.03;;;;;;;4.49;83.53;93720.50;5007948;28;20429;-40
2023/01/13 08:34:38;;;;;;;1.83;1.63;;;;;;;4.73;82.15;93728.09;5008119;28;20763;-40
2023/01/13 08:37:03;;;;;;;1.92;1.20;;;;;;;5.04;80.63;93727.72;5008518;28;20467;-40
2023/01/13 08:39:29;;;;;;;1.83;1.63;;;;;;;4.79;81.30;93723.34;5008225;28;20513;-40
2023/01/13 08:41:54;;;;;;;3.70;1.60;;;;;;;5.21;80.09;93722.88;5008265;28;20084;-40
2023/01/13 08:44:24;;;;;;;3.50;2.08;;;;;;;5.46;78.79;93722.97;5007824;28;20087;-40
2023/01/13 08:46:49;;;;;;;2.80;2.22;;;;;;;5.78;76.95;93721.94;5007779;28;20018;-40
2023/01/13 08:49:16;;;;;;;3.45;2.33;;;;;;;5.96;75.91;93718.59;5007779;28;20744;-40
2023/01/13 08:51:42;;;;;;;2.28;1.70;;;;;;;6.04;75.46;93722.25;5007753;28;20108;-40
2023/01/13 08:54:07;;;;;;;1.85;1.75;;;;;;;5.85;75.30;93720.66;5007777;28;20130;-40
2023/01/13 08:56:33;;;;;;;19.02;8.02;;;;;;;6.25;74.93;93708.09;5007668;28;20026;-40
2023/01/13 08:58:59;;;;;;;18.52;8.18;;;;;;;6.24;74.28;93703.88;5007531;28;20036;-40
2023/01/13 09:01:24;;;;;;;1.80;1.27;;;;;;;6.33;72.30;93707.00;5007556;28;20061;-40
2023/01/13 09:03:50;;;;;;;4.97;2.63;;;;;;;7.11;72.55;93708.78;5009052;28;20421;-41
2023/01/13 09:06:16;;;;;;;3.20;1.95;;;;;;;8.11;67.48;93699.75;5027605;28;20500;-40
2023/01/13 09:08:42;;;;;;;5.55;3.38;;;;;;;8.69;67.04;93696.94;5027236;28;20578;-40
2023/01/13 09:14:04;;;;;;;0.85;0.80;;;;;;;7.89;65.57;93680.88;5026391;28;20445;-40
2023/01/13 09:16:29;;;;;;;3.72;2.92;;;;;;;8.33;66.48;93688.38;5026338;28;20241;-40
2023/01/13 09:18:55;;;;;;;7.22;4.68;;;;;;;8.48;65.58;93688.59;5007811;28;20037;-41
2023/01/13 09:21:21;;;;;;;3.05;2.45;;;;;;;10.03;60.88;93684.44;5007251;28;20036;-40
2023/01/13 09:23:47;;;;;;;5.15;3.97;;;;;;;9.96;59.12;93691.38;5007331;28;20545;-41
2023/01/13 09:26:15;;;;;;;3.20;2.83;;;;;;;9.81;59.89;93686.44;5007245;28;20171;-40
2023/01/13 09:28:41;;;;;;;7.72;5.53;;;;;;;11.18;58.63;93679.78;5005717;28;20083;-41
2023/01/13 09:31:06;;;;;;;2.63;2.10;;;;;;;13.16;52.09;93673.78;5026125;28;20033;-41
2023/01/13 09:36:15;;;;;;;6.85;5.22;;;;;;;11.03;54.48;93677.72;5026847;28;20831;-41
2023/01/13 09:38:41;;;;;;;5.22;3.40;;;;;;;9.94;58.58;93677.34;5026906;28;20017;-41
2023/01/13 09:44:24;;;;;;;4.40;3.40;;;;;;;8.37;62.86;93683.28;5026850;28;20033;-41
2023/01/13 09:46:53;;;;;;;3.30;3.00;;;;;;;7.67;66.03;93679.25;5007735;28;20021;-40
2023/01/13 09:49:20;;;;;;;;;;;;;;;7.18;67.92;93692.47;5007752;28;20026;-40
2023/01/13 09:51:53;;;;;;;2.13;1.92;;;;;;;6.93;68.71;93691.06;5006253;28;20007;-40
2023/01/13 09:54:31;;;;;;;2.88;2.17;;;;;;;7.21;70.05;93685.94;5007489;28;20053;-40
2023/01/13 09:56:59;;;;;;;1.23;1.13;;;;;;;7.19;69.13;93677.47;5007363;28;20437;-40
2023/01/13 09:59:31;;;;;;;2.10;1.58;;;;;;;7.32;68.60;93683.03;5007093;28;20030;-41
2023/01/13 10:02:31;;;;;;;1.45;1.25;;;;;;;7.40;68.52;93672.94;5005974;28;20037;-40
2023/01/13 10:05:15;;;;;;;8.13;4.22;;;;;;;7.43;68.88;93674.63;5017299;28;20059;-41
2023/01/13 10:07:57;;;;;;;2.83;2.00;;;;;;;7.38;68.73;93669.97;5027163;28;20061;-40
2023/01/13 10:10:49;;;;;;;1.48;1.38;;;;;;;6.85;70.07;93673.72;5025675;28;20033;-40
2023/01/13 10:13:31;;;;;;;3.83;1.58;;;;;;;6.75;71.36;93659.63;5026005;28;20036;-40
2023/01/13 10:16:09;;;;;;;2.28;1.75;;;;;;;6.59;72.33;93676.28;5030613;28;20021;-40
2023/01/13 10:18:40;;;;;;;2.15;1.95;;;;;;;7.02;71.97;93663.25;5012833;28;20033;-41
2023/01/13 10:21:43;;;;;;;0.80;0.80;;;;;;;7.25;69.91;93671.91;5009805;28;20029;-40
2023/01/13 10:24:49;;;;;;;1.30;1.20;;;;;;;7.57;69.02;93667.91;5010282;28;20046;-40
2023/01/13 10:27:29;;;;;;;2.38;1.55;;;;;;;7.35;68.87;93671.00;4977187;28;20449;-41
2023/01/13 10:29:54;;;;;;;3.55;3.17;;;;;;;7.08;70.54;93668.66;5017828;28;20104;-40
2023/01/13 10:32:20;;;;;;;1.98;1.55;;;;;;;7.21;69.82;93666.72;5030256;28;20120;-40
2023/01/13 10:34:50;;;;;;;6.07;3.80;;;;;;;7.41;68.92;93668.91;5029806;28;20056;-40
2023/01/13 10:37:26;;;;;;;7.47;4.22;;;;;;;7.31;69.96;93670.56;5029946;28;20025;-40
2023/01/13 10:40:02;;;;;;;5.13;3.85;;;;;;;7.35;68.56;93671.00;5030289;28;20040;-40
2023/01/13 10:42:27;;;;;;;9.55;5.32;;;;;;;7.59;68.81;93667.38;5030177;28;20521;-40
2023/01/13 10:44:57;;;;;;;4.18;2.95;;;;;;;7.29;68.77;93673.09;5026564;28;20026;-40
2023/01/13 10:47:29;;;;;;;3.72;2.75;;;;;;;7.41;69.58;93663.41;5010471;28;20037;-41
2023/01/13 10:50:00;;;;;;;3.60;2.58;;;;;;;7.49;68.98;93658.78;5009986;28;20034;-40
2023/01/13 10:52:28;;;;;;;3.80;2.75;;;;;;;7.42;68.91;93658.66;5010028;28;20092;-41
2023/01/13 10:54:54;;;;;;;2.60;2.15;;;;;;;7.33;70.14;93657.06;5010086;28;20132;-40
2023/01/13 10:57:22;;;;;;;2.47;1.92;;;;;;;7.44;69.63;93656.88;5009946;28;20053;-40
2023/01/13 10:59:49;;;;;;;2.60;1.80;;;;;;;6.93;70.35;93663.63;5010200;28;20040;-40
2023/01/13 11:02:32;;;;;;;3.33;1.75;;;;;;;6.49;72.34;93662.19;5008737;28;20536;-40
2023/01/13 11:05:23;;;;;;;2.08;1.70;;;;;;;6.54;73.33;93661.38;5008481;28;20033;-40
2023/01/13 11:07:51;;;;;;;1.65;1.42;;;;;;;6.49;73.53;93661.44;5008603;28;20034;-40
2023/01/13 11:10:21;;;;;;;1.90;1.55;;;;;;;6.30;73.35;93657.94;5008781;28;20403;-40
2023/01/13 11:12:55;;;;;;;1.67;1.33;;;;;;;6.24;73.61;93660.00;5009547;28;20117;-40
2023/01/13 11:15:30;;;;;;;1.60;1.50;;;;;;;6.09;74.29;93649.44;5009475;28;20030;-40
2023/01/13 11:18:14;;;;;;;2.55;1.70;;;;;;;5.99;75.31;93651.78;5008216;28;20474;-40
2023/01/13 11:20:41;;;;;;;5.15;1.77;;;;;;;6.19;75.22;93642.38;5009132;28;20646;-40
2023/01/13 11:23:20;;;;;;;2.33;1.40;;;;;;;6.37;74.43;93638.16;5008308;28;20105;-40
2023/01/13 11:25:50;;;;;;;3.28;2.00;;;;;;;6.49;74.41;93636.78;5009255;28;20025;-40
2023/01/13 11:28:49;;;;;;;1.80;1.70;;;;;;;6.32;74.53;93630.75;5008316;28;20088;-40
2023/01/13 11:31:24;;;;;;;;;;;;;;;6.34;73.38;93631.72;5008943;28;20037;-40
2023/01/13 11:33:52;;;;;;;2.22;1.88;;;;;;;5.86;75.97;93635.25;5009383;28;19913;-41
2023/01/13 11:36:32;;;;;;;1.98;1.80;;;;;;;5.90;75.85;93630.22;5008873;28;20060;-40
2023/01/13 11:39:22;;;;;;;1.67;1.58;;;;;;;5.77;75.75;93635.53;5008098;28;20033;-40
2023/01/13 11:42:19;;;;;;;1.90;1.70;;;;;;;5.69;76.37;93633.88;5008983;28;20513;-40
2023/01/13 11:45:05;;;;;;;3.95;2.80;;;;;;;5.83;75.97;93633.47;5007478;28;20045;-40
2023/01/13 11:47:31;;;;;;;5.20;3.58;;;;;;;5.86;75.22;93632.50;5001354;28;20065;-41
2023/01/13 11:49:57;;;;;;;4.05;2.67;;;;;;;5.63;76.03;93636.66;5008890;28;20064;-40
2023/01/13 11:52:47;;;;;;;8.45;5.18;;;;;;;5.71;77.26;93636.84;5009067;28;20049;-40
2023/01/13 11:55:41;;;;;;;7.38;4.95;;;;;;;6.02;76.93;93636.31;5009007;28;20116;-40
2023/01/13 11:58:25;;;;;;;14.10;7.47;;;;;;;6.17;75.15;93633.91;5007491;28;20028;-40
2023/01/13 12:00:56;;;;;;;25.42;13.35;;;;;;;5.86;75.95;93631.75;5009039;28;20468;-40
2023/01/13 12:03:34;;;;;;;14.77;8.90;;;;;;;5.78;76.30;93636.28;5008631;28;20034;-40
2023/01/13 12:06:21;;;;;;;29.73;16.05;;;;;;;5.91;75.17;93634.41;5027811;28;20041;-40
2023/01/13 12:08:54;;;;;;;12.88;7.00;;;;;;;5.94;75.52;93633.41;5028325;28;20025;-40
2023/01/13 12:11:33;;;;;;;3.47;2.50;;;;;;;5.64;75.84;93634.66;5026867;28;20063;-39
2023/01/13 12:14:05;;;;;;;4.32;2.95;;;;;;;5.59;76.07;93633.47;5027063;28;20035;-39
2023/01/13 12:16:31;;;;;;;3.28;2.97;;;;;;;5.61;77.65;93628.22;5025658;28;20061;-40
2023/01/13 12:19:15;;;;;;;2.55;2.10;;;;;;;5.62;76.39;93626.22;5008445;28;20034;-40
2023/01/13 12:22:08;;;;;;;3.97;3.13;;;;;;;5.75;76.86;93631.81;5008384;28;20568;-39
2023/01/13 12:25:03;;;;;;;5.53;4.22;;;;;;;5.89;78.10;93625.97;5001875;28;20120;-40
2023/01/13 12:27:39;;;;;;;3.88;2.60;;;;;;;5.98;77.23;93628.38;5006056;28;20052;-40
2023/01/13 12:30:24;;;;;;;2.65;2.38;;;;;;;5.95;76.53;93628.66;5006483;28;20595;-39
2023/01/13 12:32:52;;;;;;;7.50;4.82;;;;;;;6.07;77.24;93636.25;5006915;28;20501;-40
2023/01/13 12:35:39;;;;;;;3.10;2.42;;;;;;;6.33;75.98;93635.72;5008227;28;20054;-40
2023/01/13 12:38:33;;;;;;;4.57;2.70;;;;;;;6.32;74.51;93634.25;5006731;28;20022;-39
2023/01/13 12:41:04;;;;;;;4.63;3.05;;;;;;;6.36;75.37;93631.94;5006703;28;20050;-40
2023/01/13 12:46:20;;;;;;;7.60;4.13;;;;;;;6.28;74.96;93633.03;5007274;28;20087;-40